createdAt,value
2023-01-09T00:01:54.025Z,8.10
2023-01-09T00:04:22.181Z,5.32
2023-01-09T00:06:54.449Z,1.58
2023-01-09T00:09:23.903Z,0.15
2023-01-09T00:11:52.838Z,0.40
2023-01-09T00:14:22.725Z,0.43
2023-01-09T00:16:56.047Z,0.10
2023-01-09T00:19:24.247Z,0.10
2023-01-09T00:21:52.857Z,0.28
2023-01-09T00:24:21.079Z,1.27
2023-01-09T00:26:50.074Z,0.10
2023-01-09T00:29:19.163Z,0.05
2023-01-09T00:31:48.577Z,0.00
2023-01-09T00:34:18.139Z,0.10
2023-01-09T00:36:47.232Z,0.05
2023-01-09T00:39:16.329Z,0.00
2023-01-09T00:41:48.830Z,0.10
2023-01-09T00:44:21.415Z,0.10
2023-01-09T00:46:55.685Z,0.20
2023-01-09T00:49:26.498Z,0.20
2023-01-09T00:51:56.820Z,0.10
2023-01-09T00:54:26.467Z,0.20
2023-01-09T00:56:54.930Z,0.10
2023-01-09T00:59:23.617Z,0.03
2023-01-09T01:01:51.967Z,0.00
2023-01-09T01:04:37.956Z,0.10
2023-01-09T01:07:26.217Z,0.10
2023-01-09T01:09:54.609Z,0.10
2023-01-09T01:12:23.441Z,0.10
2023-01-09T01:14:53.375Z,0.00
2023-01-09T01:17:21.633Z,0.00
2023-01-09T01:19:50.530Z,0.10
2023-01-09T01:22:20.672Z,0.08
2023-01-09T01:24:50.732Z,0.00
2023-01-09T01:27:19.148Z,0.05
2023-01-09T01:29:47.456Z,0.10
2023-01-09T01:32:16.295Z,0.10
2023-01-09T01:34:46.358Z,0.10
2023-01-09T01:37:16.803Z,0.00
2023-01-09T01:39:46.271Z,0.10
2023-01-09T01:42:15.861Z,0.08
2023-01-09T01:45:09.990Z,0.10
2023-01-09T01:47:54.368Z,0.10
2023-01-09T01:50:33.298Z,0.00
2023-01-09T01:53:13.430Z,0.10
2023-01-09T01:55:48.403Z,0.22
2023-01-09T01:58:17.554Z,0.30
2023-01-09T02:00:48.777Z,0.30
2023-01-09T02:03:22.882Z,0.20
2023-01-09T02:05:52.257Z,0.28
2023-01-09T02:08:21.343Z,0.20
2023-01-09T02:10:52.355Z,0.20
2023-01-09T02:13:21.787Z,0.40
2023-01-09T02:16:07.196Z,0.20
2023-01-09T02:18:48.789Z,0.20
2023-01-09T02:21:25.699Z,0.20
2023-01-09T02:24:21.566Z,0.10
2023-01-09T02:27:17.221Z,0.35
2023-01-09T02:30:20.304Z,0.13
2023-01-09T02:33:03.564Z,0.30
2023-01-09T02:35:58.386Z,0.30
2023-01-09T02:38:37.704Z,0.20
2023-01-09T02:41:14.477Z,0.40
2023-01-09T02:43:42.910Z,0.30
2023-01-09T02:46:22.151Z,0.35
2023-01-09T02:48:55.207Z,0.38
2023-01-09T02:51:37.835Z,0.20
2023-01-09T02:54:24.750Z,0.20
2023-01-09T02:57:15.390Z,0.20
2023-01-09T03:00:04.708Z,0.20
2023-01-09T03:02:51.282Z,0.40
2023-01-09T03:05:26.954Z,0.50
2023-01-09T03:08:04.429Z,0.20
2023-01-09T03:10:40.643Z,0.20
2023-01-09T03:13:15.487Z,0.20
2023-01-09T03:15:49.733Z,0.20
2023-01-09T03:18:23.210Z,0.20
2023-01-09T03:20:53.129Z,0.20
2023-01-09T03:23:21.391Z,0.20
2023-01-09T03:25:49.835Z,0.10
2023-01-09T03:28:27.524Z,0.22
2023-01-09T03:30:57.001Z,0.10
2023-01-09T03:33:26.699Z,0.20
2023-01-09T03:35:55.571Z,0.10
2023-01-09T03:38:23.723Z,0.20
2023-01-09T03:40:52.735Z,0.10
2023-01-09T03:43:21.159Z,0.10
2023-01-09T03:45:49.864Z,0.20
2023-01-09T03:48:18.558Z,0.27
2023-01-09T03:50:50.128Z,0.10
2023-01-09T03:53:19.865Z,0.13
2023-01-09T03:55:49.900Z,0.10
2023-01-09T03:58:21.214Z,0.10
2023-01-09T04:00:50.990Z,0.40
2023-01-09T04:03:22.288Z,0.30
2023-01-09T04:05:52.684Z,0.37
2023-01-09T04:08:21.889Z,0.50
2023-01-09T04:10:53.418Z,0.20
2023-01-09T04:13:22.188Z,0.20
2023-01-09T04:15:50.981Z,0.20
2023-01-09T04:18:19.838Z,0.40
2023-01-09T04:20:49.685Z,0.20
2023-01-09T04:23:19.280Z,0.40
2023-01-09T04:25:49.745Z,0.17
2023-01-09T04:28:18.108Z,0.57
2023-01-09T04:30:46.540Z,0.10
2023-01-09T04:33:15.145Z,0.47
2023-01-09T04:35:43.638Z,0.40
2023-01-09T04:38:14.288Z,0.40
2023-01-09T04:40:44.091Z,0.60
2023-01-09T04:43:12.399Z,0.40
2023-01-09T04:45:41.389Z,0.70
2023-01-09T04:48:09.740Z,0.33
2023-01-09T04:50:37.967Z,0.70
2023-01-09T04:53:07.213Z,0.60
2023-01-09T04:55:35.346Z,0.90
2023-01-09T04:58:05.350Z,0.90
2023-01-09T05:00:34.340Z,1.10
2023-01-09T05:03:03.404Z,1.13
2023-01-09T05:05:31.802Z,1.17
2023-01-09T05:08:00.359Z,1.07
2023-01-09T05:10:28.497Z,1.00
2023-01-09T05:12:57.128Z,0.70
2023-01-09T05:15:28.523Z,0.60
2023-01-09T05:17:57.139Z,0.80
2023-01-09T05:20:25.549Z,0.83
2023-01-09T05:22:53.714Z,1.07
2023-01-09T05:25:22.385Z,2.00
2023-01-09T05:27:51.002Z,1.80
2023-01-09T05:30:19.671Z,1.10
2023-01-09T05:32:49.278Z,1.23
2023-01-09T05:35:17.607Z,0.73
2023-01-09T05:37:46.109Z,0.83
2023-01-09T05:40:14.851Z,0.90
2023-01-09T05:42:44.898Z,0.87
2023-01-09T05:45:13.635Z,1.10
2023-01-09T05:47:42.176Z,1.00
2023-01-09T05:50:14.907Z,1.10
2023-01-09T05:52:43.483Z,0.90
2023-01-09T06:36:28.158Z,1.53
2023-01-09T06:38:56.266Z,1.20
2023-01-09T06:41:24.765Z,1.40
2023-01-09T06:43:54.337Z,1.00
2023-01-09T06:46:23.373Z,1.23
2023-01-09T06:48:52.059Z,1.40
2023-01-09T06:51:20.472Z,1.17
2023-01-09T06:53:48.798Z,1.00
2023-01-09T06:56:17.479Z,1.10
2023-01-09T06:58:45.582Z,1.37
2023-01-09T07:01:15.572Z,1.60
2023-01-09T07:03:44.421Z,1.30
2023-01-09T07:06:12.591Z,1.50
2023-01-09T07:08:41.197Z,1.00
2023-01-09T07:11:09.312Z,1.00
2023-01-09T07:13:38.387Z,1.67
2023-01-09T07:16:08.858Z,2.80
2023-01-09T07:18:39.318Z,2.60
2023-01-09T07:21:08.613Z,3.20
2023-01-09T07:23:37.015Z,1.60
2023-01-09T07:26:05.827Z,1.93
2023-01-09T07:28:34.004Z,1.77
2023-01-09T07:31:04.997Z,1.30
2023-01-09T07:33:33.415Z,1.03
2023-01-09T07:36:03.342Z,1.43
2023-01-09T07:38:32.145Z,0.93
2023-01-09T07:41:00.471Z,0.97
2023-01-09T07:43:28.975Z,0.97
2023-01-09T07:45:57.077Z,1.30
2023-01-09T07:48:25.712Z,1.00
2023-01-09T07:50:53.928Z,0.80
2023-01-09T07:53:23.325Z,0.80
2023-01-09T07:55:51.827Z,0.57
2023-01-09T07:58:19.929Z,1.40
2023-01-09T08:00:48.036Z,0.87
2023-01-09T08:03:16.547Z,0.77
2023-01-09T08:05:44.684Z,1.27
2023-01-09T08:08:14.358Z,8.60
2023-01-09T08:10:44.811Z,1.10
2023-01-09T08:13:13.657Z,0.80
2023-01-09T08:15:41.786Z,0.50
2023-01-09T08:18:10.098Z,0.70
2023-01-09T08:20:38.809Z,1.00
2023-01-09T08:23:07.164Z,0.60
2023-01-09T08:25:35.314Z,0.90
2023-01-09T08:28:05.415Z,1.00
2023-01-09T08:30:33.624Z,0.63
2023-01-09T08:33:02.338Z,0.77
2023-01-09T08:35:30.915Z,1.40
2023-01-09T08:37:59.352Z,0.97
2023-01-09T08:40:27.547Z,1.37
2023-01-09T08:43:28.725Z,2.47
2023-01-09T08:46:16.477Z,2.53
2023-01-09T08:48:44.743Z,2.60
2023-01-09T08:51:13.184Z,1.73
2023-01-09T08:53:41.795Z,1.20
2023-01-09T08:56:10.314Z,1.10
2023-01-09T08:58:38.928Z,0.80
2023-01-09T09:01:09.479Z,0.53
2023-01-09T09:03:38.430Z,0.70
2023-01-09T09:06:07.532Z,1.13
2023-01-09T09:08:35.634Z,1.37
2023-01-09T09:11:04.383Z,2.70
2023-01-09T09:13:32.588Z,1.33
2023-01-09T09:16:00.791Z,1.50
2023-01-09T09:18:30.855Z,1.20
2023-01-09T09:20:59.039Z,1.80
2023-01-09T09:23:27.680Z,1.70
2023-01-09T09:25:56.283Z,2.37
2023-01-09T09:28:24.408Z,5.10
2023-01-09T09:30:53.118Z,1.80
2023-01-09T09:33:21.652Z,1.33
2023-01-09T09:35:51.374Z,1.90
2023-01-09T09:38:20.551Z,1.27
2023-01-09T09:41:34.104Z,0.83
2023-01-09T09:44:53.871Z,0.97
2023-01-09T09:47:48.473Z,1.07
2023-01-09T09:50:39.474Z,0.40
2023-01-09T09:53:19.905Z,1.10
2023-01-09T09:55:52.217Z,0.83
2023-01-09T09:58:30.632Z,0.73
2023-01-09T10:01:02.785Z,0.90
2023-01-09T10:03:38.874Z,0.87
2023-01-09T10:06:16.597Z,1.50
2023-01-09T10:08:55.672Z,1.27
2023-01-09T10:11:33.527Z,0.87
2023-01-09T10:14:22.855Z,1.00
2023-01-09T10:17:14.043Z,1.00
2023-01-09T10:20:09.068Z,1.17
2023-01-09T10:22:51.992Z,0.90
2023-01-09T10:25:33.401Z,1.00
2023-01-09T10:28:23.148Z,0.70
2023-01-09T10:30:59.925Z,1.10
2023-01-09T10:33:56.131Z,1.13
2023-01-09T10:37:00.947Z,1.07
2023-01-09T10:39:38.653Z,1.23
2023-01-09T10:42:20.141Z,0.60
2023-01-09T10:44:58.072Z,0.40
2023-01-09T10:47:33.634Z,1.80
2023-01-09T10:50:19.120Z,1.33
2023-01-09T10:52:51.340Z,0.90
2023-01-09T10:55:29.396Z,1.20
2023-01-09T10:58:10.335Z,0.90
2023-01-09T11:00:40.606Z,0.87
2023-01-09T11:03:14.668Z,1.33
2023-01-09T11:05:44.430Z,1.40
2023-01-09T11:08:25.645Z,1.07
2023-01-09T11:10:57.147Z,1.17
2023-01-09T11:13:30.859Z,1.23
2023-01-09T11:16:07.693Z,1.70
2023-01-09T11:18:40.804Z,1.50
2023-01-09T11:21:35.859Z,1.53
2023-01-09T11:24:31.877Z,1.27
2023-01-09T11:27:27.297Z,1.07
2023-01-09T11:30:20.478Z,1.00
2023-01-09T11:32:50.394Z,0.90
2023-01-09T11:35:22.988Z,1.07
2023-01-09T11:38:05.784Z,0.90
2023-01-09T11:40:47.303Z,0.97
2023-01-09T11:43:21.867Z,0.87
2023-01-09T11:46:01.021Z,1.13
2023-01-09T11:48:38.029Z,0.80
2023-01-09T11:51:19.921Z,0.60
2023-01-09T11:54:16.325Z,0.90
2023-01-09T11:56:46.616Z,0.43
2023-01-09T11:59:17.995Z,0.60
2023-01-09T12:02:35.034Z,0.67
2023-01-09T12:05:20.616Z,0.90
2023-01-09T12:08:19.839Z,1.30
2023-01-09T12:11:28.641Z,1.33
2023-01-09T12:14:27.903Z,1.03
2023-01-09T12:17:54.375Z,1.03
2023-01-09T12:20:55.920Z,1.37
2023-01-09T12:23:42.101Z,1.10
2023-01-09T12:26:20.508Z,0.87
2023-01-09T12:29:28.475Z,1.13
2023-01-09T12:32:33.792Z,1.03
2023-01-09T12:35:13.788Z,1.50
2023-01-09T12:38:24.394Z,1.23
2023-01-09T12:41:16.972Z,1.30
2023-01-09T12:44:02.314Z,2.87
2023-01-09T12:46:42.579Z,6.00
2023-01-09T12:49:31.634Z,3.20
2023-01-09T12:52:10.592Z,3.07
2023-01-09T12:54:48.260Z,1.40
2023-01-09T12:57:23.195Z,1.20
2023-01-09T12:59:56.369Z,1.50
2023-01-09T13:02:33.717Z,1.63
2023-01-09T13:05:11.467Z,0.70
2023-01-09T13:07:45.997Z,0.60
2023-01-09T13:10:24.528Z,1.90
2023-01-09T13:12:56.359Z,0.80
2023-01-09T13:15:33.137Z,1.70
2023-01-09T13:18:08.583Z,1.70
2023-01-09T13:20:45.110Z,1.60
2023-01-09T13:23:27.328Z,1.43
2023-01-09T13:25:58.865Z,1.00
2023-01-09T13:28:33.162Z,1.90
2023-01-09T13:31:25.909Z,0.70
2023-01-09T13:34:00.459Z,0.83
2023-01-09T13:36:34.760Z,0.83
2023-01-09T13:39:04.219Z,0.80
2023-01-09T13:41:51.190Z,0.70
2023-01-09T13:44:28.558Z,0.80
2023-01-09T13:46:59.936Z,0.70
2023-01-09T13:50:09.112Z,0.60
2023-01-09T13:52:41.209Z,1.07
2023-01-09T13:55:36.145Z,0.67
2023-01-09T13:58:25.755Z,0.73
2023-01-09T14:01:03.536Z,1.00
2023-01-09T14:03:36.445Z,1.10
2023-01-09T14:06:24.415Z,0.97
2023-01-09T14:09:18.251Z,0.90
2023-01-09T14:11:49.592Z,1.20
2023-01-09T14:14:33.196Z,1.00
2023-01-09T14:17:03.428Z,0.90
2023-01-09T14:19:38.305Z,1.10
2023-01-09T14:22:08.561Z,1.10
2023-01-09T14:24:52.437Z,1.10
2023-01-09T14:28:20.041Z,1.10
2023-01-09T14:31:27.026Z,1.57
2023-01-09T14:34:31.032Z,1.63
2023-01-09T14:37:03.491Z,1.43
2023-01-09T14:39:33.975Z,1.27
2023-01-09T14:42:16.006Z,3.03
2023-01-09T14:44:51.863Z,2.90
2023-01-09T14:47:35.633Z,1.77
2023-01-09T14:50:13.975Z,2.37
2023-01-09T14:52:50.073Z,3.50
2023-01-09T14:55:27.409Z,2.53
2023-01-09T14:57:57.686Z,1.37
2023-01-09T15:00:26.271Z,3.20
2023-01-09T15:02:55.341Z,0.57
2023-01-09T15:05:31.378Z,1.20
2023-01-09T15:08:04.701Z,1.03
2023-01-09T15:10:37.939Z,0.90
2023-01-09T15:13:18.050Z,1.23
2023-01-09T15:15:48.547Z,1.30
2023-01-09T15:18:24.846Z,1.50
2023-01-09T15:20:59.888Z,1.30
2023-01-09T15:23:31.283Z,3.37
2023-01-09T15:26:15.666Z,1.43
2023-01-09T15:28:45.329Z,1.97
2023-01-09T15:31:19.188Z,2.60
2023-01-09T15:33:49.425Z,2.27
2023-01-09T15:36:24.888Z,1.97
2023-01-09T15:38:55.109Z,1.70
2023-01-09T15:41:46.558Z,8.47
2023-01-09T15:44:22.120Z,3.67
2023-01-09T15:46:52.220Z,2.47
2023-01-09T15:49:20.993Z,3.47
2023-01-09T15:51:51.864Z,1.50
2023-01-09T15:54:30.102Z,1.43
2023-01-09T15:57:35.763Z,1.80
2023-01-09T16:00:39.764Z,1.60
2023-01-09T16:03:27.341Z,1.03
2023-01-09T16:06:05.496Z,1.33
2023-01-09T16:08:39.366Z,1.13
2023-01-09T16:11:21.563Z,0.97
2023-01-09T16:13:50.088Z,1.07
2023-01-09T16:16:29.300Z,1.10
2023-01-09T16:18:59.630Z,1.30
2023-01-09T16:21:35.965Z,3.03
2023-01-09T16:24:25.980Z,0.70
2023-01-09T16:27:12.409Z,2.43
2023-01-09T16:29:51.178Z,3.90
2023-01-09T16:32:23.826Z,2.23
2023-01-09T16:34:59.933Z,2.10
2023-01-09T16:37:29.573Z,3.60
2023-01-09T16:40:24.652Z,4.10
2023-01-09T16:43:01.576Z,2.70
2023-01-09T16:45:34.325Z,2.13
2023-01-09T16:48:12.956Z,2.80
2023-01-09T16:50:41.631Z,4.40
2023-01-09T16:53:17.439Z,5.37
2023-01-09T16:55:47.075Z,3.17
2023-01-09T16:58:18.796Z,2.10
2023-01-09T17:00:48.390Z,2.00
2023-01-09T17:03:20.159Z,3.60
2023-01-09T17:05:52.790Z,3.23
2023-01-09T17:08:27.571Z,3.60
2023-01-09T17:11:00.049Z,3.83
2023-01-09T17:13:28.550Z,3.33
2023-01-09T17:16:00.038Z,1.90
2023-01-09T17:18:29.756Z,1.50
2023-01-09T17:20:59.747Z,1.33
2023-01-09T17:23:28.685Z,0.80
2023-01-09T17:26:18.358Z,1.10
2023-01-09T17:28:51.160Z,1.10
2023-01-09T17:31:20.460Z,1.00
2023-01-09T17:33:50.168Z,1.00
2023-01-09T17:36:29.533Z,0.50
2023-01-09T17:38:57.807Z,0.80
2023-01-09T17:41:29.233Z,0.80
2023-01-09T17:43:59.055Z,0.90
2023-01-09T17:46:32.619Z,1.13
2023-01-09T17:49:04.561Z,1.50
2023-01-09T17:51:32.863Z,1.50
2023-01-09T17:54:01.932Z,1.30
2023-01-09T17:56:34.273Z,1.20
2023-01-09T17:59:03.426Z,1.57
2023-01-09T18:01:32.060Z,1.07
2023-01-09T18:04:02.587Z,1.10
2023-01-09T18:06:30.938Z,1.30
2023-01-09T18:09:00.010Z,1.80
2023-01-09T18:11:28.563Z,1.30
2023-01-09T18:13:57.107Z,1.40
2023-01-09T18:16:28.859Z,1.57
2023-01-09T18:18:59.836Z,1.30
2023-01-09T18:21:31.408Z,1.80
2023-01-09T18:24:01.356Z,2.23
2023-01-09T18:26:30.284Z,1.10
2023-01-09T18:29:01.363Z,1.20
2023-01-09T18:31:30.917Z,1.80
2023-01-09T18:34:02.646Z,1.23
2023-01-09T18:36:34.107Z,1.30
2023-01-09T18:39:05.525Z,1.27
2023-01-09T18:41:34.435Z,1.30
2023-01-09T18:44:03.007Z,1.23
2023-01-09T18:46:32.650Z,1.83
2023-01-09T18:49:03.239Z,1.40
2023-01-09T18:51:35.931Z,1.80
2023-01-09T18:54:04.781Z,3.27
2023-01-09T18:56:33.623Z,1.40
2023-01-09T18:59:01.846Z,1.27
2023-01-09T19:01:33.142Z,2.87
2023-01-09T19:04:02.669Z,1.60
2023-01-09T19:06:32.958Z,3.37
2023-01-09T19:09:01.330Z,2.37
2023-01-09T19:11:31.303Z,4.57
2023-01-09T19:13:59.577Z,1.90
2023-01-09T19:16:27.867Z,1.90
2023-01-09T19:18:57.329Z,2.00
2023-01-09T19:21:27.089Z,1.40
2023-01-09T19:23:58.769Z,1.47
2023-01-09T19:26:31.010Z,3.97
2023-01-09T19:29:00.813Z,1.30
2023-01-09T19:31:30.046Z,1.20
2023-01-09T19:33:59.663Z,1.90
2023-01-09T19:36:29.488Z,2.03
2023-01-09T19:39:00.362Z,1.40
2023-01-09T19:41:29.845Z,2.30
2023-01-09T19:44:00.367Z,1.93
2023-01-09T19:46:30.425Z,1.47
2023-01-09T19:48:59.077Z,1.67
2023-01-09T19:51:28.033Z,1.73
2023-01-09T19:56:30.367Z,1.70
2023-01-09T19:59:01.295Z,1.50
2023-01-09T20:01:32.614Z,1.70
2023-01-09T20:04:07.968Z,1.53
2023-01-09T20:06:39.468Z,1.80
2023-01-09T20:09:12.472Z,1.47
2023-01-09T20:11:44.543Z,1.10
2023-01-09T20:14:14.739Z,1.80
2023-01-09T20:16:44.160Z,1.53
2023-01-09T20:19:14.411Z,1.60
2023-01-09T20:21:43.937Z,1.40
2023-01-09T20:24:16.986Z,1.00
2023-01-09T20:26:46.917Z,1.13
2023-01-09T20:29:15.711Z,1.40
2023-01-09T20:31:44.318Z,1.10
2023-01-09T20:34:14.269Z,1.43
2023-01-09T20:36:42.733Z,1.90
2023-01-09T20:39:13.996Z,1.70
2023-01-09T20:41:42.294Z,1.30
2023-01-09T20:44:14.391Z,1.40
2023-01-09T20:46:47.459Z,1.57
2023-01-09T20:49:18.276Z,2.00
2023-01-09T20:51:48.998Z,1.73
2023-01-09T20:54:22.215Z,1.50
2023-01-09T20:56:50.546Z,2.70
2023-01-09T20:59:22.481Z,1.93
2023-01-09T21:01:51.414Z,1.90
2023-01-09T21:04:20.017Z,1.57
2023-01-09T21:06:50.241Z,1.80
2023-01-09T21:09:20.756Z,1.33
2023-01-09T21:11:49.171Z,1.57
2023-01-09T21:14:18.136Z,1.40
2023-01-09T21:16:54.111Z,1.70
2023-01-09T21:19:23.755Z,1.23
2023-01-09T21:21:53.442Z,1.20
2023-01-09T21:24:23.102Z,1.27
2023-01-09T21:26:51.678Z,1.07
2023-01-09T21:29:20.301Z,1.23
2023-01-09T21:31:48.443Z,0.83
2023-01-09T21:34:21.023Z,0.70
2023-01-09T21:36:49.653Z,0.60
2023-01-09T21:39:19.276Z,0.90
2023-01-09T21:42:06.542Z,0.90
2023-01-09T21:44:53.186Z,0.70
2023-01-09T21:47:21.382Z,0.80
2023-01-09T21:49:49.728Z,0.80
2023-01-09T21:52:18.451Z,0.80
2023-01-09T21:54:46.929Z,0.80
2023-01-09T21:57:16.765Z,0.47
2023-01-09T21:59:45.041Z,0.70
2023-01-09T22:02:15.750Z,0.73
2023-01-09T22:04:48.352Z,0.47
2023-01-09T22:07:17.463Z,0.70
2023-01-09T22:09:45.901Z,0.80
2023-01-09T22:12:14.505Z,0.60
2023-01-09T22:14:45.192Z,0.70
2023-01-09T22:17:13.378Z,0.60
2023-01-09T22:19:42.318Z,0.50
2023-01-09T22:22:10.453Z,0.60
2023-01-09T22:24:39.087Z,0.40
2023-01-09T22:27:07.183Z,0.60
2023-01-09T22:29:35.534Z,0.50
2023-01-09T22:32:05.474Z,0.50
2023-01-09T22:34:33.731Z,0.33
2023-01-09T22:37:02.959Z,0.40
2023-01-09T22:39:31.473Z,0.97
2023-01-09T22:41:59.984Z,0.50
2023-01-09T22:44:28.057Z,0.50
2023-01-09T22:46:57.438Z,0.33
2023-01-09T22:49:30.261Z,0.30
2023-01-09T22:52:01.547Z,1.10
2023-01-09T22:54:29.962Z,0.83
2023-01-09T22:56:58.144Z,0.90
2023-01-09T22:59:27.714Z,1.00
2023-01-09T23:01:57.797Z,0.50
2023-01-09T23:04:27.830Z,0.33
2023-01-09T23:06:56.346Z,0.80
2023-01-09T23:09:25.969Z,0.90
2023-01-09T23:12:03.367Z,1.00
2023-01-09T23:14:33.956Z,1.00
2023-01-09T23:17:02.165Z,0.60
2023-01-09T23:19:32.692Z,0.80
2023-01-09T23:22:02.941Z,0.87
2023-01-09T23:24:33.018Z,0.80
2023-01-09T23:27:01.331Z,0.90
2023-01-09T23:29:29.960Z,0.50
2023-01-09T23:31:58.743Z,0.70
2023-01-09T23:34:27.634Z,0.70
2023-01-09T23:36:57.720Z,1.13
2023-01-09T23:39:26.393Z,0.87
2023-01-09T23:42:12.490Z,0.80
2023-01-09T23:44:41.290Z,0.77
2023-01-09T23:47:09.309Z,0.93
2023-01-09T23:49:37.755Z,1.20
2023-01-09T23:52:08.779Z,0.80
2023-01-09T23:54:37.508Z,0.90
2023-01-09T23:57:06.134Z,0.90
2023-01-09T23:59:35.284Z,0.73
